Time;durP1;ratioP1;P1;durP2;ratioP2;P2;SDS_P1;SDS_P2;PMS_P1;PMS_P2;Temp;Humidity;BMP_temperature;BMP_pressure;BME280_temperature;BME280_humidity;BME280_pressure;Samples;Min_cycle;Max_cycle;Signal;HPM_P1;HPM_P2
2022/03/22 00:01:24;;;;;;;21.50;11.82;;;4.80;57.00;;;;;;4974592;28;20042;-88
2022/03/22 00:03:50;;;;;;;24.45;12.65;;;4.80;57.20;;;;;;4973906;28;20022;-88
2022/03/22 00:06:17;;;;;;;22.90;11.88;;;4.70;56.70;;;;;;4972963;28;20080;-87
2022/03/22 00:08:43;;;;;;;21.63;11.85;;;4.70;57.00;;;;;;4991218;28;20026;-88
2022/03/22 00:11:09;;;;;;;21.27;10.85;;;4.70;57.10;;;;;;4973595;28;20510;-88
2022/03/22 00:13:34;;;;;;;20.83;11.23;;;4.70;57.10;;;;;;4991362;28;20027;-88
2022/03/22 00:16:01;;;;;;;21.60;12.00;;;4.60;57.00;;;;;;4991272;28;20041;-88
2022/03/22 00:18:27;;;;;;;22.48;11.50;;;4.50;57.10;;;;;;4974355;28;20026;-88
2022/03/22 00:20:52;;;;;;;19.83;10.93;;;4.50;57.30;;;;;;4973933;28;20037;-88
2022/03/22 00:23:21;;;;;;;18.63;10.77;;;4.40;57.20;;;;;;4965654;28;20031;-88
2022/03/22 00:25:47;;;;;;;17.17;10.25;;;4.40;57.50;;;;;;4969737;28;20039;-89
2022/03/22 00:28:13;;;;;;;21.95;11.60;;;4.40;57.70;;;;;;4980342;28;20030;-88
2022/03/22 00:30:39;;;;;;;21.20;11.27;;;4.40;57.80;;;;;;4969840;28;20550;-88
2022/03/22 00:33:07;;;;;;;20.83;11.63;;;4.40;58.20;;;;;;4978499;28;20038;-88
2022/03/22 00:35:36;;;;;;;22.13;11.15;;;4.40;57.80;;;;;;4973554;28;20037;-88
2022/03/22 00:38:03;;;;;;;21.80;11.43;;;4.30;57.70;;;;;;4990839;28;20022;-88
2022/03/22 00:40:30;;;;;;;27.27;13.43;;;4.20;57.50;;;;;;4974231;28;20482;-89
2022/03/22 00:42:56;;;;;;;22.70;12.00;;;4.10;57.50;;;;;;4969568;28;20022;-88
2022/03/22 00:45:32;;;;;;;20.65;11.52;;;4.00;57.50;;;;;;4990639;28;20545;-88
2022/03/22 00:47:59;;;;;;;21.88;11.23;;;3.80;57.60;;;;;;4971991;28;20026;-88
2022/03/22 00:50:27;;;;;;;25.10;12.30;;;3.70;57.60;;;;;;4967050;28;20029;-88
2022/03/22 00:52:55;;;;;;;33.95;15.05;;;3.60;57.80;;;;;;4973784;28;20031;-88
2022/03/22 00:55:23;;;;;;;64.72;27.38;;;3.50;58.00;;;;;;4973183;28;20615;-88
2022/03/22 00:57:50;;;;;;;60.85;25.42;;;3.50;58.20;;;;;;4973878;28;20041;-88
2022/03/22 01:00:18;;;;;;;57.20;23.23;;;3.60;58.40;;;;;;4991240;28;20026;-88
2022/03/22 01:02:48;;;;;;;45.75;20.52;;;3.60;58.50;;;;;;4973865;28;20118;-88
2022/03/22 01:05:15;;;;;;;31.05;14.40;;;3.50;58.50;;;;;;4957272;28;20030;-88
2022/03/22 01:07:41;;;;;;;27.65;12.80;;;3.50;58.40;;;;;;4973609;28;20398;-88
2022/03/22 01:10:10;;;;;;;25.38;11.98;;;3.50;58.40;;;;;;4972501;28;20042;-87
2022/03/22 01:12:37;;;;;;;19.60;10.98;;;3.50;58.50;;;;;;4990927;28;20057;-88
2022/03/22 01:15:10;;;;;;;27.95;13.02;;;3.40;58.50;;;;;;4973462;28;20113;-88
2022/03/22 01:17:38;;;;;;;31.88;15.82;;;3.40;58.70;;;;;;4993787;28;20487;-88
2022/03/22 01:20:05;;;;;;;35.00;17.13;;;3.40;58.90;;;;;;4977119;28;20037;-88
2022/03/22 01:22:31;;;;;;;28.92;14.60;;;3.40;59.20;;;;;;4976808;28;20029;-88
2022/03/22 01:24:57;;;;;;;34.53;16.13;;;3.40;59.10;;;;;;4977326;28;20034;-88
2022/03/22 01:27:22;;;;;;;30.92;15.05;;;3.50;59.30;;;;;;4994903;28;20030;-88
2022/03/22 01:29:49;;;;;;;25.25;12.27;;;3.40;59.20;;;;;;4988262;28;20018;-87
2022/03/22 01:32:15;;;;;;;27.05;13.25;;;3.40;59.10;;;;;;5000988;28;20022;-88
2022/03/22 01:34:42;;;;;;;27.23;13.60;;;3.40;59.20;;;;;;4982604;28;20181;-88
2022/03/22 01:37:09;;;;;;;38.72;17.27;;;3.40;59.30;;;;;;4977432;28;20062;-88
2022/03/22 01:39:34;;;;;;;50.20;20.60;;;3.40;59.40;;;;;;4976963;28;20026;-88
2022/03/22 01:42:00;;;;;;;65.28;22.77;;;3.40;59.60;;;;;;4976780;28;20506;-88
2022/03/22 01:44:26;;;;;;;54.50;22.30;;;3.40;59.60;;;;;;4992551;28;20026;-87
2022/03/22 01:46:56;;;;;;;47.17;19.20;;;3.40;59.60;;;;;;4976893;28;20037;-87
2022/03/22 01:49:22;;;;;;;41.25;18.25;;;3.40;59.70;;;;;;4968288;28;20038;-87
2022/03/22 01:51:51;;;;;;;48.70;18.98;;;3.30;59.60;;;;;;4957487;28;20052;-88
2022/03/22 01:54:17;;;;;;;58.42;23.35;;;3.30;59.70;;;;;;4973288;28;20041;-88
2022/03/22 01:56:44;;;;;;;90.35;37.67;;;3.30;59.80;;;;;;4994581;28;20027;-88
2022/03/22 01:59:09;;;;;;;66.82;29.92;;;3.30;59.80;;;;;;4976616;28;20026;-88
2022/03/22 02:07:06;;;;;;;21.38;11.57;;;3.20;59.80;;;;;;4993326;28;20049;-88
2022/03/22 02:09:32;;;;;;;20.38;11.07;;;3.10;59.70;;;;;;4976477;28;20510;-87
2022/03/22 02:11:58;;;;;;;22.80;12.00;;;3.00;59.70;;;;;;4975427;28;20072;-88
2022/03/22 02:14:24;;;;;;;21.48;12.32;;;3.00;60.00;;;;;;4975653;28;20466;-88
2022/03/22 02:16:50;;;;;;;19.77;11.27;;;2.90;60.00;;;;;;4975764;28;20030;-87
2022/03/22 02:19:15;;;;;;;19.83;11.88;;;2.90;60.00;;;;;;4976450;28;20028;-88
2022/03/22 02:21:42;;;;;;;20.38;11.05;;;2.80;60.10;;;;;;4975612;28;20041;-87
2022/03/22 02:24:08;;;;;;;17.63;10.88;;;2.80;60.30;;;;;;4975619;28;20026;-88
2022/03/22 02:26:34;;;;;;;18.38;10.88;;;2.80;60.50;;;;;;4973282;28;20407;-87
2022/03/22 02:28:59;;;;;;;19.98;10.73;;;2.80;60.60;;;;;;4974883;28;20027;-87
2022/03/22 02:31:28;;;;;;;23.95;10.95;;;2.80;60.60;;;;;;4975886;28;20029;-87
2022/03/22 02:33:55;;;;;;;18.50;10.98;;;2.70;60.70;;;;;;4975498;28;20018;-88
2022/03/22 02:36:21;;;;;;;18.58;10.18;;;2.70;60.60;;;;;;5071856;23;20095;-90
2022/03/22 02:38:48;;;;;;;17.45;10.85;;;2.70;60.70;;;;;;4984463;28;20022;-90
2022/03/22 02:41:24;;;;;;;19.27;11.10;;;2.60;60.70;;;;;;4996785;28;20028;-89
2022/03/22 02:43:51;;;;;;;18.55;10.82;;;2.60;61.10;;;;;;5002674;28;20030;-88
2022/03/22 02:46:17;;;;;;;17.50;9.95;;;2.60;61.00;;;;;;4984677;28;20084;-90
2022/03/22 02:48:43;;;;;;;18.75;9.88;;;2.60;61.00;;;;;;4985015;28;20014;-87
2022/03/22 02:51:10;;;;;;;14.80;9.95;;;2.50;60.80;;;;;;5000571;28;20083;-87
2022/03/22 02:53:36;;;;;;;18.85;10.68;;;2.40;60.80;;;;;;5000217;28;20045;-87
2022/03/22 02:56:02;;;;;;;21.60;10.88;;;2.30;60.80;;;;;;4999174;28;20030;-87
2022/03/22 02:58:28;;;;;;;17.42;10.27;;;2.30;61.10;;;;;;4978656;28;20578;-89
2022/03/22 03:00:54;;;;;;;17.20;9.98;;;2.30;61.30;;;;;;4984192;28;20094;-88
2022/03/22 03:03:22;;;;;;;21.20;10.35;;;2.30;61.40;;;;;;4983587;28;20031;-87
2022/03/22 03:05:49;;;;;;;20.00;10.75;;;2.20;61.40;;;;;;4981176;28;20011;-88
2022/03/22 03:08:15;;;;;;;21.80;11.23;;;2.40;61.70;;;;;;4980150;28;20050;-89
2022/03/22 03:10:42;;;;;;;17.50;10.30;;;2.40;61.70;;;;;;4976724;28;20029;-89
2022/03/22 03:13:08;;;;;;;17.70;10.20;;;2.30;61.60;;;;;;4979707;28;20122;-89
2022/03/22 03:15:34;;;;;;;16.15;10.07;;;2.30;61.70;;;;;;4990537;28;20026;-91
2022/03/22 03:17:59;;;;;;;18.67;10.45;;;2.30;61.80;;;;;;4976682;28;20029;-90
2022/03/22 03:20:25;;;;;;;18.75;10.32;;;2.30;61.70;;;;;;4975808;28;20030;-88
2022/03/22 03:22:51;;;;;;;19.55;10.23;;;2.30;61.70;;;;;;4973018;28;20431;-90
2022/03/22 03:25:18;;;;;;;21.08;11.32;;;2.20;61.80;;;;;;4974544;28;20058;-89
2022/03/22 03:27:44;;;;;;;17.83;10.45;;;2.30;62.60;;;;;;4976241;28;20030;-90
2022/03/22 03:30:10;;;;;;;16.33;10.27;;;2.30;62.00;;;;;;4975816;28;20445;-89
2022/03/22 03:32:35;;;;;;;21.25;11.13;;;2.30;62.00;;;;;;4992797;28;20037;-89
2022/03/22 03:35:02;;;;;;;17.20;10.82;;;2.30;62.20;;;;;;4975201;28;20034;-88
2022/03/22 03:37:30;;;;;;;19.25;9.95;;;2.40;62.20;;;;;;4975380;28;20031;-89
2022/03/22 03:39:55;;;;;;;18.45;9.77;;;2.30;62.20;;;;;;4973928;28;20026;-91
2022/03/22 03:42:21;;;;;;;19.85;11.00;;;2.30;62.70;;;;;;4971744;28;20018;-88
2022/03/22 03:47:31;;;;;;;19.70;10.43;;;2.30;62.20;;;;;;4984760;28;20108;-90
2022/03/22 03:49:59;;;;;;;19.77;10.30;;;2.20;62.00;;;;;;4975288;28;20026;-91
2022/03/22 03:52:27;;;;;;;22.98;10.98;;;2.20;62.10;;;;;;4975245;28;20033;-88
2022/03/22 03:54:53;;;;;;;18.80;10.40;;;2.10;62.00;;;;;;4974933;28;20117;-90
2022/03/22 03:57:20;;;;;;;21.30;12.40;;;2.10;62.20;;;;;;4975995;28;20022;-90
2022/03/22 03:59:46;;;;;;;22.40;11.98;;;2.10;62.40;;;;;;4975848;28;20114;-90
2022/03/22 04:02:12;;;;;;;17.67;10.50;;;2.00;62.50;;;;;;4975111;28;20509;-89
2022/03/22 04:04:39;;;;;;;17.73;10.30;;;2.10;62.50;;;;;;4975471;28;20030;-88
2022/03/22 04:07:06;;;;;;;19.70;10.52;;;2.00;62.40;;;;;;4975690;28;20136;-90
2022/03/22 04:09:32;;;;;;;17.38;10.25;;;2.00;62.40;;;;;;4975401;28;20036;-88
2022/03/22 04:11:58;;;;;;;15.88;9.88;;;1.90;62.30;;;;;;4991951;28;20022;-86
2022/03/22 04:14:24;;;;;;;21.20;11.15;;;1.80;62.30;;;;;;4992032;28;20046;-88
2022/03/22 04:16:50;;;;;;;23.52;12.85;;;1.80;62.40;;;;;;4993450;28;20058;-89
2022/03/22 04:19:16;;;;;;;20.63;12.63;;;1.80;62.70;;;;;;4989859;28;20057;-88
2022/03/22 04:21:42;;;;;;;22.30;11.45;;;1.80;63.10;;;;;;4980913;28;20033;-89
2022/03/22 04:24:10;;;;;;;19.52;11.68;;;1.80;63.20;;;;;;4975455;28;20202;-89
2022/03/22 04:26:37;;;;;;;20.02;11.32;;;1.90;63.40;;;;;;4975329;28;20121;-90
2022/03/22 04:34:32;;;;;;;17.20;10.68;;;1.90;63.30;;;;;;4992630;28;20138;-89
2022/03/22 04:36:59;;;;;;;18.58;11.25;;;2.00;63.40;;;;;;4975053;28;20051;-89
2022/03/22 04:39:26;;;;;;;20.45;10.40;;;2.00;63.40;;;;;;4975779;28;20042;-90
2022/03/22 04:41:53;;;;;;;19.38;10.90;;;2.00;63.40;;;;;;4975263;28;20105;-91
2022/03/22 04:44:18;;;;;;;17.90;9.82;;;1.90;63.50;;;;;;4974655;28;20038;-88
2022/03/22 04:46:44;;;;;;;17.50;10.15;;;1.90;63.60;;;;;;4976071;28;20029;-91
2022/03/22 04:49:10;;;;;;;17.92;10.77;;;1.90;63.70;;;;;;4976101;28;20030;-92
2022/03/22 04:57:04;;;;;;;17.13;10.48;;;1.90;63.80;;;;;;4997035;28;20116;-91
2022/03/22 04:59:30;;;;;;;20.40;10.43;;;1.90;63.80;;;;;;4978943;28;20046;-90
2022/03/22 05:01:57;;;;;;;20.60;10.50;;;1.90;63.60;;;;;;4981331;28;20026;-90
2022/03/22 05:04:23;;;;;;;20.15;10.70;;;1.80;63.40;;;;;;4980458;28;20026;-90
2022/03/22 05:06:48;;;;;;;18.92;10.65;;;1.60;63.30;;;;;;4981293;28;20030;-91
2022/03/22 05:09:14;;;;;;;18.75;10.75;;;1.50;64.10;;;;;;4980438;28;20479;-90
2022/03/22 05:11:40;;;;;;;21.20;11.25;;;1.50;63.90;;;;;;4980351;28;20100;-90
2022/03/22 05:14:08;;;;;;;16.98;10.07;;;1.40;64.50;;;;;;4978883;28;20058;-89
2022/03/22 05:16:35;;;;;;;18.08;10.63;;;1.40;64.00;;;;;;4979037;28;20057;-90
2022/03/22 05:19:01;;;;;;;18.50;10.57;;;1.40;64.10;;;;;;4978885;28;20105;-90
2022/03/22 05:21:27;;;;;;;18.20;10.15;;;1.50;64.20;;;;;;4983045;28;20410;-90
2022/03/22 05:23:53;;;;;;;17.88;10.07;;;1.40;64.10;;;;;;4999247;28;20022;-91
2022/03/22 05:26:19;;;;;;;18.92;11.20;;;1.50;64.30;;;;;;4978281;28;20379;-90
2022/03/22 05:28:45;;;;;;;17.90;11.25;;;1.50;64.30;;;;;;4996389;28;20046;-90
2022/03/22 05:31:13;;;;;;;21.75;11.85;;;1.50;64.40;;;;;;4978603;28;20026;-91
2022/03/22 05:33:38;;;;;;;18.05;10.52;;;1.60;64.50;;;;;;4978781;28;20027;-90
2022/03/22 05:36:05;;;;;;;19.60;11.05;;;1.60;64.40;;;;;;4976715;28;20092;-90
2022/03/22 05:38:32;;;;;;;30.52;14.63;;;1.50;64.20;;;;;;4978350;28;20402;-90
2022/03/22 05:40:57;;;;;;;22.10;10.65;;;1.50;64.20;;;;;;4979049;28;20486;-90
2022/03/22 05:43:25;;;;;;;23.80;12.13;;;1.50;64.30;;;;;;4991240;28;20021;-88
2022/03/22 05:45:50;;;;;;;20.92;10.73;;;1.40;64.30;;;;;;4985161;28;20065;-89
2022/03/22 05:48:17;;;;;;;22.67;12.27;;;1.40;64.20;;;;;;4978091;28;20060;-88
2022/03/22 05:50:43;;;;;;;21.10;11.43;;;1.30;64.30;;;;;;4977423;28;20058;-90
2022/03/22 05:53:10;;;;;;;19.38;11.90;;;1.20;64.50;;;;;;4978911;28;20037;-89
2022/03/22 05:55:39;;;;;;;20.55;11.65;;;1.20;64.60;;;;;;4976440;28;20022;-88
2022/03/22 05:58:06;;;;;;;23.58;12.02;;;1.30;64.80;;;;;;4975302;28;20023;-87
2022/03/22 06:00:32;;;;;;;21.52;11.98;;;1.30;65.00;;;;;;4996711;28;20087;-88
2022/03/22 06:02:58;;;;;;;22.58;13.30;;;1.40;65.20;;;;;;4973083;28;20026;-88
2022/03/22 06:05:24;;;;;;;23.42;12.45;;;1.40;65.10;;;;;;4979152;28;20038;-89
2022/03/22 06:07:50;;;;;;;23.95;13.23;;;1.50;65.40;;;;;;4982164;28;20026;-89
2022/03/22 06:10:16;;;;;;;25.58;13.13;;;1.60;65.50;;;;;;4992163;28;20512;-90
2022/03/22 06:12:54;;;;;;;21.63;13.35;;;1.70;65.50;;;;;;4978586;28;20113;-89
2022/03/22 06:15:22;;;;;;;22.27;12.57;;;1.70;65.50;;;;;;4979090;28;20030;-89
2022/03/22 06:18:10;;;;;;;23.75;13.45;;;1.80;65.50;;;;;;4980248;28;20030;-90
2022/03/22 06:20:43;;;;;;;24.02;13.25;;;1.90;65.70;;;;;;4976383;28;20033;-89
2022/03/22 06:23:10;;;;;;;27.02;14.00;;;2.00;65.40;;;;;;4976901;28;20027;-88
2022/03/22 06:25:38;;;;;;;23.23;13.60;;;2.20;65.40;;;;;;4975637;28;20034;-90
2022/03/22 06:28:06;;;;;;;24.20;13.80;;;2.40;65.50;;;;;;4977252;28;20401;-89
2022/03/22 06:30:33;;;;;;;25.48;12.52;;;2.50;65.30;;;;;;4977769;28;20537;-89
2022/03/22 06:33:06;;;;;;;24.52;13.60;;;2.80;65.50;;;;;;4977325;28;20040;-90
2022/03/22 06:35:33;;;;;;;22.83;11.98;;;2.90;65.60;;;;;;4977168;28;20402;-90
2022/03/22 06:38:00;;;;;;;21.55;10.88;;;3.20;65.40;;;;;;4977470;28;20049;-89
2022/03/22 06:40:28;;;;;;;21.77;11.32;;;3.30;65.30;;;;;;4977779;28;20084;-89
2022/03/22 06:42:58;;;;;;;18.02;10.95;;;3.50;65.30;;;;;;4999761;28;20041;-86
2022/03/22 06:45:24;;;;;;;23.25;11.35;;;3.70;65.30;;;;;;4991163;28;20070;-86
2022/03/22 06:47:50;;;;;;;18.60;10.13;;;3.90;65.20;;;;;;5000184;28;20073;-87
2022/03/22 06:50:18;;;;;;;20.60;11.98;;;4.10;65.10;;;;;;4999887;28;20145;-88
2022/03/22 06:52:44;;;;;;;20.67;11.23;;;4.30;65.00;;;;;;4995404;28;20026;-87
2022/03/22 06:55:13;;;;;;;24.00;11.60;;;4.50;64.80;;;;;;4998338;28;20110;-87
2022/03/22 06:57:42;;;;;;;21.08;11.93;;;4.70;64.50;;;;;;5017073;28;20048;-88
2022/03/22 07:00:10;;;;;;;19.80;9.93;;;5.00;64.40;;;;;;4999028;28;20040;-89
2022/03/22 07:02:42;;;;;;;19.90;10.40;;;5.30;64.10;;;;;;4993452;28;20034;-91
2022/03/22 07:05:08;;;;;;;17.05;9.32;;;5.60;63.70;;;;;;4973977;28;20034;-92
2022/03/22 07:07:35;;;;;;;21.70;10.07;;;6.10;63.50;;;;;;4970220;28;20031;-91
2022/03/22 07:10:01;;;;;;;18.48;9.75;;;6.40;63.20;;;;;;4976088;28;20511;-92
2022/03/22 07:12:27;;;;;;;17.38;9.65;;;6.80;62.90;;;;;;4978034;28;20023;-87
2022/03/22 07:14:53;;;;;;;16.48;9.45;;;7.20;62.70;;;;;;5008080;28;20528;-89
2022/03/22 07:17:19;;;;;;;20.88;9.80;;;7.50;62.40;;;;;;4993603;28;20022;-91
2022/03/22 07:19:45;;;;;;;18.25;9.95;;;8.00;62.10;;;;;;4978768;28;20617;-91
2022/03/22 07:22:10;;;;;;;18.10;9.27;;;8.40;61.70;;;;;;4967399;28;20046;-92
2022/03/22 07:24:36;;;;;;;15.85;9.70;;;8.70;60.60;;;;;;4973665;28;20113;-92
2022/03/22 07:27:04;;;;;;;16.92;9.50;;;9.20;59.70;;;;;;4957478;28;20495;-92
2022/03/22 07:29:30;;;;;;;13.40;9.15;;;9.70;59.20;;;;;;4957722;28;20055;-93
2022/03/22 07:31:57;;;;;;;12.65;8.27;;;10.30;58.90;;;;;;4957640;28;20026;-91
2022/03/22 07:34:23;;;;;;;12.65;8.30;;;10.70;58.30;;;;;;4961619;28;20507;-90
2022/03/22 07:36:52;;;;;;;12.05;7.82;;;10.90;57.20;;;;;;4957680;28;20081;-92
2022/03/22 07:39:19;;;;;;;12.68;7.72;;;10.80;56.70;;;;;;4958073;28;20027;-92
2022/03/22 07:41:46;;;;;;;17.02;8.48;;;11.10;56.40;;;;;;4957855;28;20031;-92
2022/03/22 07:44:12;;;;;;;13.77;7.75;;;11.60;56.00;;;;;;4957670;28;20133;-89
2022/03/22 07:46:42;;;;;;;11.05;7.05;;;11.80;56.10;;;;;;4969715;28;20049;-91
2022/03/22 07:54:36;;;;;;;12.10;7.22;;;12.30;56.30;;;;;;5034111;28;20040;-87
2022/03/22 07:57:03;;;;;;;11.82;7.35;;;12.90;55.10;;;;;;5017841;28;20034;-88
2022/03/22 07:59:28;;;;;;;10.93;6.78;;;13.70;53.50;;;;;;4994311;28;20031;-90
2022/03/22 08:01:55;;;;;;;9.68;7.47;;;14.40;51.80;;;;;;4964088;28;20464;-90
2022/03/22 08:04:21;;;;;;;11.23;7.10;;;15.10;50.60;;;;;;4962397;28;20019;-90
2022/03/22 08:06:46;;;;;;;10.65;7.47;;;15.70;49.40;;;;;;4977388;28;20049;-88
2022/03/22 08:09:12;;;;;;;10.30;7.10;;;16.20;48.10;;;;;;4978386;28;20054;-88
2022/03/22 08:11:39;;;;;;;10.68;7.03;;;16.80;47.20;;;;;;4966320;28;20042;-88
2022/03/22 08:14:05;;;;;;;9.80;6.55;;;17.30;46.20;;;;;;4956953;28;20129;-89
2022/03/22 08:16:31;;;;;;;9.98;6.80;;;17.70;45.30;;;;;;4961847;28;20023;-90
2022/03/22 08:18:57;;;;;;;9.77;6.10;;;18.10;44.90;;;;;;4976837;28;20088;-90
2022/03/22 08:21:23;;;;;;;10.55;7.15;;;18.60;44.40;;;;;;4977277;28;20022;-89
2022/03/22 08:23:49;;;;;;;10.93;7.43;;;19.00;43.70;;;;;;4976571;28;20076;-90
2022/03/22 08:26:14;;;;;;;10.00;7.07;;;19.30;43.10;;;;;;4976852;28;20027;-89
2022/03/22 08:28:42;;;;;;;10.85;6.95;;;19.50;42.50;;;;;;4980153;28;20348;-90
2022/03/22 08:31:10;;;;;;;9.88;7.32;;;19.80;42.30;;;;;;4979785;28;20530;-90
2022/03/22 08:33:36;;;;;;;14.68;7.53;;;20.00;42.10;;;;;;4980700;28;20489;-90
2022/03/22 08:36:02;;;;;;;10.23;6.85;;;20.10;41.90;;;;;;5043648;23;20236;-87
2022/03/22 08:38:27;;;;;;;15.85;6.85;;;20.10;41.90;;;;;;4963773;28;20063;-88
2022/03/22 08:40:56;;;;;;;11.95;7.30;;;20.20;41.80;;;;;;4992699;28;20030;-89
2022/03/22 08:43:25;;;;;;;10.57;7.05;;;20.10;41.90;;;;;;4977870;28;20023;-88
2022/03/22 08:45:51;;;;;;;9.40;7.10;;;20.00;41.60;;;;;;4962263;28;20018;-88
2022/03/22 08:48:17;;;;;;;13.07;7.15;;;19.80;41.90;;;;;;4946526;28;20110;-88
2022/03/22 08:50:45;;;;;;;12.30;7.07;;;19.70;42.10;;;;;;4982442;28;20482;-90
2022/03/22 08:53:12;;;;;;;11.80;6.95;;;19.70;42.00;;;;;;4995607;28;20487;-88
2022/03/22 08:55:37;;;;;;;13.80;6.90;;;19.60;42.20;;;;;;4962193;28;20065;-89
2022/03/22 08:58:07;;;;;;;16.70;7.47;;;19.60;42.40;;;;;;4958631;28;20055;-89
2022/03/22 09:00:34;;;;;;;19.42;7.20;;;19.50;42.20;;;;;;4958688;28;20081;-89
2022/03/22 09:03:01;;;;;;;17.83;7.68;;;19.50;42.30;;;;;;4975645;28;20027;-88
2022/03/22 09:08:11;;;;;;;12.98;7.32;;;19.50;42.30;;;;;;4970799;28;20443;-88
2022/03/22 09:10:37;;;;;;;18.77;6.95;;;19.40;42.80;;;;;;4957848;28;20062;-88
2022/03/22 09:13:04;;;;;;;13.30;7.20;;;19.40;42.90;;;;;;4956907;28;20023;-88
2022/03/22 09:15:31;;;;;;;13.05;7.97;;;19.40;42.90;;;;;;4956999;28;20440;-87
2022/03/22 09:17:57;;;;;;;11.88;7.43;;;19.30;42.80;;;;;;4957098;28;20034;-85
2022/03/22 09:20:25;;;;;;;13.05;7.47;;;19.20;43.10;;;;;;4955516;28;20080;-87
2022/03/22 09:22:52;;;;;;;16.83;7.60;;;19.20;43.20;;;;;;4954749;28;20041;-87
2022/03/22 09:25:20;;;;;;;17.15;7.68;;;19.10;43.30;;;;;;4950870;28;20062;-85
2022/03/22 09:27:46;;;;;;;15.63;7.47;;;18.80;43.00;;;;;;4955710;28;20031;-87
2022/03/22 09:30:13;;;;;;;15.57;8.02;;;18.60;43.20;;;;;;4956779;28;20411;-86
2022/03/22 09:32:40;;;;;;;12.65;8.20;;;18.50;43.50;;;;;;4956537;28;20034;-86
2022/03/22 09:35:07;;;;;;;15.30;7.90;;;18.40;43.50;;;;;;4956342;28;20177;-87
2022/03/22 09:37:36;;;;;;;12.05;7.75;;;18.40;43.50;;;;;;4955975;28;20042;-87
2022/03/22 09:40:03;;;;;;;13.68;7.82;;;18.30;43.60;;;;;;4957277;28;20447;-87
2022/03/22 09:42:30;;;;;;;13.63;7.80;;;18.30;43.90;;;;;;4972363;28;20077;-87
2022/03/22 09:44:57;;;;;;;18.83;8.52;;;18.20;44.00;;;;;;4965310;28;20073;-85
2022/03/22 09:47:23;;;;;;;13.75;7.57;;;18.20;44.10;;;;;;4956441;28;20031;-87
2022/03/22 09:49:49;;;;;;;16.70;7.70;;;18.20;44.40;;;;;;4956743;28;20026;-85
2022/03/22 09:52:16;;;;;;;13.13;7.45;;;18.20;44.70;;;;;;4973792;28;20542;-87
2022/03/22 09:54:42;;;;;;;15.43;7.70;;;18.20;44.60;;;;;;4954666;28;20111;-88
2022/03/22 09:57:07;;;;;;;12.70;7.95;;;18.20;44.30;;;;;;4952781;28;20026;-87
2022/03/22 09:59:36;;;;;;;14.40;7.68;;;18.20;44.40;;;;;;4956990;28;20466;-87
2022/03/22 10:02:03;;;;;;;13.23;7.30;;;18.30;44.30;;;;;;4964934;28;20027;-87
2022/03/22 10:04:42;;;;;;;13.73;8.00;;;18.40;44.60;;;;;;4956594;28;20113;-88
2022/03/22 10:07:17;;;;;;;15.75;7.57;;;18.50;44.50;;;;;;4956319;28;20039;-88
2022/03/22 10:09:54;;;;;;;15.20;7.50;;;18.60;44.40;;;;;;4956368;28;20053;-88
2022/03/22 10:12:28;;;;;;;15.23;7.95;;;18.70;44.90;;;;;;4956019;28;20031;-88
2022/03/22 10:14:54;;;;;;;12.93;8.15;;;18.90;44.30;;;;;;4955403;28;20037;-88
2022/03/22 10:17:19;;;;;;;12.93;7.70;;;19.00;44.20;;;;;;4956576;28;20027;-88
2022/03/22 10:19:48;;;;;;;15.95;8.43;;;19.20;44.30;;;;;;4957098;28;20026;-88
2022/03/22 10:22:14;;;;;;;10.23;7.70;;;19.20;43.70;;;;;;4955916;28;20031;-87
2022/03/22 10:24:45;;;;;;;15.30;8.13;;;19.10;43.80;;;;;;4955806;28;20042;-88
2022/03/22 10:27:28;;;;;;;17.23;8.30;;;19.20;43.50;;;;;;4956584;28;20038;-88
2022/03/22 10:29:56;;;;;;;14.27;8.68;;;19.10;43.10;;;;;;4974077;28;20038;-87
2022/03/22 10:32:42;;;;;;;16.08;8.15;;;19.00;43.10;;;;;;4956265;28;20050;-87
2022/03/22 10:35:17;;;;;;;13.75;7.38;;;18.70;43.20;;;;;;4956718;28;20031;-87
2022/03/22 10:38:06;;;;;;;16.80;7.82;;;18.60;43.90;;;;;;4955844;28;20033;-88
2022/03/22 10:40:34;;;;;;;14.93;8.10;;;18.70;44.10;;;;;;4967717;28;20026;-88
2022/03/22 10:43:06;;;;;;;15.57;7.20;;;18.90;44.10;;;;;;4955590;28;20031;-87
2022/03/22 10:46:01;;;;;;;12.57;8.02;;;18.90;43.80;;;;;;4970228;28;20041;-87
2022/03/22 10:48:30;;;;;;;11.60;7.53;;;18.90;43.70;;;;;;4955005;28;20035;-87
2022/03/22 10:51:00;;;;;;;15.00;8.25;;;19.00;44.00;;;;;;4966811;28;20027;-87
2022/03/22 10:53:27;;;;;;;12.40;7.78;;;19.20;44.00;;;;;;4955764;28;20089;-88
2022/03/22 10:55:54;;;;;;;13.73;8.45;;;19.30;44.00;;;;;;4974268;28;20018;-87
2022/03/22 10:58:22;;;;;;;10.00;7.45;;;19.40;43.80;;;;;;4972451;28;20095;-87
2022/03/22 11:00:49;;;;;;;23.25;8.50;;;19.40;43.90;;;;;;4975659;28;20058;-88
2022/03/22 11:03:17;;;;;;;13.90;8.32;;;19.40;43.80;;;;;;4970768;28;20033;-88
2022/03/22 11:05:55;;;;;;;14.48;8.20;;;19.40;43.60;;;;;;4955129;28;20031;-87
2022/03/22 11:08:23;;;;;;;13.63;8.32;;;19.50;43.50;;;;;;4970445;28;20048;-88
2022/03/22 11:10:56;;;;;;;12.07;8.15;;;19.50;43.50;;;;;;4957531;28;20112;-88
2022/03/22 11:13:24;;;;;;;19.30;8.23;;;19.60;43.40;;;;;;4968850;28;20023;-87
2022/03/22 11:15:51;;;;;;;14.40;8.18;;;19.60;43.40;;;;;;4952315;28;20038;-88
2022/03/22 11:18:19;;;;;;;13.85;8.48;;;19.60;43.40;;;;;;4971168;28;20363;-88
2022/03/22 11:20:55;;;;;;;15.60;8.60;;;19.60;43.20;;;;;;4955554;28;20106;-88
2022/03/22 11:23:23;;;;;;;15.30;8.20;;;19.60;43.10;;;;;;4950381;28;20148;-88
2022/03/22 11:25:49;;;;;;;13.10;8.50;;;19.60;43.40;;;;;;4951363;28;20503;-88
2022/03/22 11:28:21;;;;;;;13.15;8.25;;;19.70;43.40;;;;;;4951558;28;20043;-88
2022/03/22 11:30:47;;;;;;;12.65;8.38;;;19.70;43.30;;;;;;4950807;28;20093;-88
2022/03/22 11:36:12;;;;;;;13.43;7.72;;;19.80;43.40;;;;;;4969159;28;20125;-89
2022/03/22 11:38:49;;;;;;;12.68;7.55;;;19.70;42.90;;;;;;4961901;28;20451;-87
2022/03/22 11:44:22;;;;;;;10.90;7.63;;;19.70;43.50;;;;;;4973074;28;20030;-90
2022/03/22 11:47:09;;;;;;;11.02;8.20;;;19.70;43.10;;;;;;4955803;28;20409;-89
2022/03/22 11:49:58;;;;;;;11.43;7.72;;;19.60;43.20;;;;;;4955739;28;20441;-89
2022/03/22 11:52:35;;;;;;;13.07;8.10;;;19.70;42.80;;;;;;4956061;28;20061;-90
2022/03/22 11:55:09;;;;;;;14.43;7.55;;;19.70;43.00;;;;;;4955654;28;20027;-89
2022/03/22 11:57:50;;;;;;;12.65;7.68;;;19.70;43.00;;;;;;4973599;28;20069;-89
2022/03/22 12:00:21;;;;;;;13.18;7.75;;;19.70;42.80;;;;;;4954880;28;20437;-89
2022/03/22 12:02:57;;;;;;;18.43;8.03;;;19.70;42.80;;;;;;4955871;28;20019;-90
2022/03/22 12:05:23;;;;;;;10.93;7.82;;;19.60;43.20;;;;;;4971704;28;20038;-90
2022/03/22 12:07:50;;;;;;;13.43;8.45;;;19.70;43.40;;;;;;4962911;28;20085;-88
2022/03/22 12:10:19;;;;;;;13.93;7.93;;;19.80;43.10;;;;;;4975132;28;20033;-89
2022/03/22 12:12:50;;;;;;;12.70;7.93;;;19.90;42.90;;;;;;4965251;28;20495;-90
2022/03/22 12:15:18;;;;;;;25.48;16.20;;;19.90;42.70;;;;;;4972873;28;20553;-89
2022/03/22 12:17:44;;;;;;;12.20;8.55;;;19.90;42.80;;;;;;4973180;28;20023;-89
2022/03/22 12:20:15;;;;;;;12.45;7.60;;;19.90;42.70;;;;;;4955427;28;20829;-89
2022/03/22 12:22:45;;;;;;;11.75;8.00;;;20.00;42.70;;;;;;4955504;28;20173;-90
2022/03/22 12:25:15;;;;;;;10.48;7.50;;;20.10;42.90;;;;;;4955423;28;20111;-90
2022/03/22 12:27:54;;;;;;;10.50;7.45;;;20.10;42.90;;;;;;4955786;28;20027;-91
2022/03/22 12:30:21;;;;;;;13.45;7.45;;;20.20;42.50;;;;;;4955687;28;20023;-90
2022/03/22 12:32:55;;;;;;;12.95;7.85;;;20.30;42.70;;;;;;4955739;28;20038;-90
2022/03/22 12:35:21;;;;;;;10.20;7.75;;;20.40;42.40;;;;;;4954723;28;20031;-89
2022/03/22 12:37:48;;;;;;;12.73;7.60;;;20.40;42.50;;;;;;4955186;28;20112;-89
2022/03/22 12:40:16;;;;;;;9.40;7.20;;;20.50;42.30;;;;;;4962953;28;20030;-88
2022/03/22 12:42:43;;;;;;;8.98;6.75;;;20.60;42.20;;;;;;4955239;28;20371;-89
2022/03/22 12:45:11;;;;;;;10.65;7.15;;;20.60;41.90;;;;;;4954642;28;20086;-89
2022/03/22 12:47:37;;;;;;;9.73;7.00;;;20.50;41.70;;;;;;4954241;28;20491;-89
2022/03/22 12:50:08;;;;;;;11.20;8.25;;;20.50;41.70;;;;;;4955394;28;20026;-89
2022/03/22 12:52:34;;;;;;;11.98;7.05;;;20.40;42.20;;;;;;4965892;28;20031;-89
2022/03/22 12:55:01;;;;;;;10.93;6.88;;;20.50;42.30;;;;;;4972505;28;20035;-90
2022/03/22 12:57:26;;;;;;;8.90;6.50;;;20.50;41.60;;;;;;4955391;28;20376;-89
2022/03/22 12:59:52;;;;;;;9.85;7.28;;;20.50;41.70;;;;;;4955230;28;20086;-88
2022/03/22 13:02:19;;;;;;;9.85;6.43;;;20.60;41.60;;;;;;4971132;28;20048;-87
2022/03/22 13:04:47;;;;;;;11.07;6.50;;;20.70;41.30;;;;;;4955116;28;20061;-91
2022/03/22 13:07:29;;;;;;;9.27;7.25;;;20.70;41.20;;;;;;4952782;28;20059;-90
2022/03/22 13:13:02;;;;;;;7.65;5.97;;;20.80;41.40;;;;;;4983417;28;20113;-89
2022/03/22 13:15:28;;;;;;;9.38;5.88;;;20.80;40.80;;;;;;4959004;28;20258;-89
2022/03/22 13:18:01;;;;;;;9.27;5.82;;;20.70;40.60;;;;;;4959121;28;20023;-89